createdAt,value
2018-12-24T00:01:11.286Z,-7.30
2018-12-24T00:03:41.435Z,-7.40
2018-12-24T00:06:11.374Z,-7.50
2018-12-24T00:08:41.262Z,-7.60
2018-12-24T00:11:12.026Z,-7.70
2018-12-24T00:13:41.982Z,-7.60
2018-12-24T00:16:11.812Z,-7.60
2018-12-24T00:18:42.274Z,-7.60
2018-12-24T00:21:12.699Z,-7.70
2018-12-24T00:23:42.569Z,-7.70
2018-12-24T00:26:13.052Z,-7.90
2018-12-24T00:28:42.911Z,-8.00
2018-12-24T00:31:12.775Z,-8.00
2018-12-24T00:33:43.108Z,-8.00
2018-12-24T00:36:13.005Z,-8.00
2018-12-24T00:38:42.867Z,-8.00
2018-12-24T00:41:13.145Z,-8.10
2018-12-24T00:43:43.063Z,-8.20
2018-12-24T00:46:12.915Z,-8.30
2018-12-24T00:48:43.113Z,-8.40
2018-12-24T00:51:13.303Z,-8.60
2018-12-24T00:53:43.219Z,-8.70
2018-12-24T00:56:13.559Z,-8.70
2018-12-24T00:58:43.754Z,-8.70
2018-12-24T01:01:13.614Z,-8.70
2018-12-24T01:03:43.810Z,-8.70
2018-12-24T01:06:14.009Z,-8.80
2018-12-24T01:08:43.893Z,-8.90
2018-12-24T01:11:14.202Z,-8.80
2018-12-24T01:13:44.914Z,-8.80
2018-12-24T01:16:14.764Z,-8.90
2018-12-24T01:18:45.059Z,-9.00
2018-12-24T01:21:14.981Z,-9.00
2018-12-24T01:23:44.838Z,-9.10
2018-12-24T01:26:15.124Z,-9.10
2018-12-24T01:28:45.352Z,-9.10
2018-12-24T01:31:15.186Z,-9.20
2018-12-24T01:33:45.381Z,-9.10
2018-12-24T01:36:15.302Z,-9.00
2018-12-24T01:38:45.171Z,-9.10
2018-12-24T01:41:15.408Z,-9.20
2018-12-24T01:43:46.064Z,-9.30
2018-12-24T01:46:15.941Z,-9.40
2018-12-24T01:48:46.191Z,-9.50
2018-12-24T01:51:16.410Z,-9.50
2018-12-24T01:53:46.270Z,-9.50
2018-12-24T01:56:16.557Z,-9.60
2018-12-24T01:58:47.083Z,-9.60
2018-12-24T02:01:17.166Z,-9.50
2018-12-24T02:03:47.090Z,-9.50
2018-12-24T02:06:16.919Z,-9.50
2018-12-24T02:08:47.150Z,-9.50
2018-12-24T02:11:17.581Z,-9.60
2018-12-24T02:13:47.838Z,-9.70
2018-12-24T02:16:18.113Z,-9.70
2018-12-24T02:18:48.056Z,-9.70
2018-12-24T02:21:17.954Z,-9.80
2018-12-24T02:23:48.069Z,-9.80
2018-12-24T02:26:18.273Z,-9.90
2018-12-24T02:28:48.502Z,-9.90
2018-12-24T02:31:18.746Z,-9.90
2018-12-24T02:33:48.904Z,-9.90
2018-12-24T02:36:18.776Z,-9.90
2018-12-24T02:38:49.128Z,-9.90
2018-12-24T02:41:19.317Z,-10.00
2018-12-24T02:43:49.665Z,-10.10
2018-12-24T02:46:19.883Z,-10.20
2018-12-24T02:48:49.846Z,-10.20
2018-12-24T02:51:19.700Z,-10.30
2018-12-24T02:53:49.925Z,-10.30
2018-12-24T02:56:19.871Z,-10.30
2018-12-24T02:58:49.961Z,-10.30
2018-12-24T03:01:19.888Z,-10.30
2018-12-24T03:03:49.833Z,-10.20
2018-12-24T03:06:20.107Z,-10.30
2018-12-24T03:08:49.981Z,-10.40
2018-12-24T03:11:20.015Z,-10.30
2018-12-24T03:13:50.064Z,-10.30
2018-12-24T03:16:19.947Z,-10.20
2018-12-24T03:18:49.885Z,-10.30
2018-12-24T03:21:20.342Z,-10.40
2018-12-24T03:23:50.241Z,-10.50
2018-12-24T03:26:20.166Z,-10.50
2018-12-24T03:28:50.482Z,-10.60
2018-12-24T03:31:20.641Z,-10.60
2018-12-24T03:33:51.145Z,-10.70
2018-12-24T03:36:21.055Z,-10.70
2018-12-24T03:38:50.947Z,-10.70
2018-12-24T03:41:21.708Z,-10.70
2018-12-24T03:43:51.528Z,-10.70
2018-12-24T03:46:21.846Z,-10.70
2018-12-24T03:48:52.289Z,-10.80
2018-12-24T03:51:22.193Z,-10.80
2018-12-24T03:53:52.053Z,-10.80
2018-12-24T03:56:22.721Z,-10.90
2018-12-24T03:58:52.622Z,-10.90
2018-12-24T04:01:22.824Z,-10.80
2018-12-24T04:03:53.095Z,-10.90
2018-12-24T04:06:23.000Z,-10.90
2018-12-24T04:08:52.865Z,-11.00
2018-12-24T04:11:24.210Z,-11.00
2018-12-24T04:13:54.331Z,-11.00
2018-12-24T04:16:24.820Z,-11.10
2018-12-24T04:18:54.697Z,-11.20
2018-12-24T04:21:24.580Z,-11.20
2018-12-24T04:23:54.762Z,-11.30
2018-12-24T04:26:24.745Z,-11.30
2018-12-24T04:28:54.652Z,-11.20
2018-12-24T04:31:25.354Z,-11.10
2018-12-24T04:33:55.270Z,-11.20
2018-12-24T04:36:25.128Z,-11.30
2018-12-24T04:38:55.394Z,-11.30
2018-12-24T04:41:25.275Z,-11.30
2018-12-24T04:43:55.235Z,-11.30
2018-12-24T04:46:25.772Z,-11.20
2018-12-24T04:48:55.685Z,-11.30
2018-12-24T04:51:25.586Z,-11.40
2018-12-24T04:53:55.927Z,-11.50
2018-12-24T04:56:25.823Z,-11.50
2018-12-24T04:58:55.687Z,-11.50
2018-12-24T05:01:26.391Z,-11.60
2018-12-24T05:03:56.346Z,-11.60
2018-12-24T05:06:26.196Z,-11.60
2018-12-24T05:08:56.422Z,-11.60
2018-12-24T05:11:26.377Z,-11.50
2018-12-24T05:13:56.371Z,-11.50
2018-12-24T05:16:27.000Z,-11.50
2018-12-24T05:18:56.948Z,-11.50
2018-12-24T05:21:26.842Z,-11.60
2018-12-24T05:23:57.279Z,-11.60
2018-12-24T05:26:27.222Z,-11.60
2018-12-24T05:28:57.124Z,-11.60
2018-12-24T05:31:27.599Z,-11.60
2018-12-24T05:33:57.527Z,-11.60
2018-12-24T05:36:27.440Z,-11.70
2018-12-24T05:38:57.666Z,-11.70
2018-12-24T05:41:27.706Z,-11.70
2018-12-24T05:43:57.544Z,-11.80
2018-12-24T05:46:28.126Z,-11.80
2018-12-24T05:48:58.066Z,-11.80
2018-12-24T05:51:27.934Z,-11.80
2018-12-24T05:53:58.186Z,-11.80
2018-12-24T05:56:28.103Z,-11.90
2018-12-24T05:58:58.032Z,-11.90
2018-12-24T06:01:28.125Z,-11.90
2018-12-24T06:03:58.103Z,-11.80
2018-12-24T06:06:27.975Z,-11.80
2018-12-24T06:08:58.086Z,-11.80
2018-12-24T06:11:28.017Z,-11.80
2018-12-24T06:13:58.353Z,-11.90
2018-12-24T06:16:28.769Z,-11.80
2018-12-24T06:18:58.637Z,-11.90
2018-12-24T06:21:28.507Z,-11.90
2018-12-24T06:23:58.718Z,-12.00
2018-12-24T06:26:28.645Z,-12.00
2018-12-24T06:28:58.527Z,-12.00
2018-12-24T06:31:28.762Z,-12.10
2018-12-24T06:33:59.006Z,-12.00
2018-12-24T06:36:28.925Z,-11.90
2018-12-24T06:38:58.892Z,-12.00
2018-12-24T06:41:28.844Z,-12.10
2018-12-24T06:44:06.516Z,-12.10
2018-12-24T06:46:30.593Z,-12.10
2018-12-24T06:49:00.909Z,-12.10
2018-12-24T06:51:31.188Z,-12.20
2018-12-24T06:54:01.059Z,-12.20
2018-12-24T06:56:31.225Z,-12.20
2018-12-24T06:59:01.434Z,-12.20
2018-12-24T07:01:31.325Z,-12.20
2018-12-24T07:04:01.573Z,-12.10
2018-12-24T07:06:31.523Z,-12.00
2018-12-24T07:09:01.421Z,-12.00
2018-12-24T07:11:31.392Z,-12.00
2018-12-24T07:14:01.633Z,-12.00
2018-12-24T07:16:31.784Z,-12.00
2018-12-24T07:19:02.477Z,-12.00
2018-12-24T07:21:32.347Z,-12.00
2018-12-24T07:24:02.226Z,-11.90
2018-12-24T07:26:32.647Z,-12.00
2018-12-24T07:29:02.519Z,-12.00
2018-12-24T07:31:32.359Z,-11.90
2018-12-24T07:34:02.903Z,-11.90
2018-12-24T07:36:33.886Z,-11.80
2018-12-24T07:39:04.110Z,-11.70
2018-12-24T07:41:34.040Z,-11.70
2018-12-24T07:44:04.090Z,-11.70
2018-12-24T07:46:34.325Z,-11.60
2018-12-24T07:49:04.485Z,-11.60
2018-12-24T07:51:34.352Z,-11.50
2018-12-24T07:54:04.594Z,-11.50
2018-12-24T07:56:34.493Z,-11.60
2018-12-24T07:59:04.410Z,-11.60
2018-12-24T08:01:34.518Z,-11.60
2018-12-24T08:04:04.774Z,-11.50
2018-12-24T08:06:34.649Z,-11.50
2018-12-24T08:09:05.620Z,-11.50
2018-12-24T08:11:35.548Z,-11.60
2018-12-24T08:14:05.385Z,-11.60
2018-12-24T08:16:35.775Z,-11.60
2018-12-24T08:19:05.996Z,-11.50
2018-12-24T08:21:35.835Z,-11.50
2018-12-24T08:24:06.118Z,-11.60
2018-12-24T08:26:36.078Z,-11.60
2018-12-24T08:29:06.250Z,-11.60
2018-12-24T08:31:36.488Z,-11.60
2018-12-24T08:34:06.744Z,-11.60
2018-12-24T08:36:36.653Z,-11.60
2018-12-24T08:39:08.170Z,-11.50
2018-12-24T08:41:38.491Z,-11.40
2018-12-24T08:44:08.349Z,-11.30
2018-12-24T08:46:38.425Z,-11.20
2018-12-24T08:49:08.580Z,-11.20
2018-12-24T08:51:38.512Z,-11.20
2018-12-24T08:54:08.687Z,-11.20
2018-12-24T08:56:38.575Z,-11.20
2018-12-24T08:59:08.457Z,-11.00
2018-12-24T09:01:38.639Z,-10.80
2018-12-24T09:04:08.905Z,-10.70
2018-12-24T09:06:38.780Z,-10.60
2018-12-24T09:09:08.985Z,-10.50
2018-12-24T09:11:38.979Z,-10.40
2018-12-24T09:14:09.173Z,-10.30
2018-12-24T09:16:39.241Z,-10.30
2018-12-24T09:19:09.688Z,-10.20
2018-12-24T09:21:39.632Z,-10.10
2018-12-24T09:24:09.570Z,-10.10
2018-12-24T09:26:39.497Z,-10.10
2018-12-24T09:29:09.403Z,-10.00
2018-12-24T09:31:39.670Z,-9.90
2018-12-24T09:34:09.639Z,-9.80
2018-12-24T09:36:39.541Z,-9.80
2018-12-24T09:39:09.481Z,-9.80
2018-12-24T09:41:39.727Z,-9.80
2018-12-24T09:44:09.609Z,-9.70
2018-12-24T09:46:39.535Z,-9.50
2018-12-24T09:49:09.694Z,-9.50
2018-12-24T09:51:39.744Z,-9.30
2018-12-24T09:54:09.646Z,-9.30
2018-12-24T09:56:40.050Z,-9.20
2018-12-24T09:59:09.940Z,-9.20
2018-12-24T10:01:39.799Z,-9.20
2018-12-24T10:04:25.275Z,-9.00
2018-12-24T10:06:56.915Z,-8.80
2018-12-24T10:09:27.105Z,-8.60
2018-12-24T10:11:57.276Z,-8.50
2018-12-24T10:14:27.164Z,-8.30
2018-12-24T10:16:57.299Z,-8.20
2018-12-24T10:19:28.194Z,-8.00
2018-12-24T10:21:58.183Z,-7.90
2018-12-24T10:24:28.082Z,-7.90
2018-12-24T10:26:57.976Z,-7.80
2018-12-24T10:29:28.005Z,-7.80
2018-12-24T10:31:57.890Z,-7.70
2018-12-24T10:34:27.867Z,-7.60
2018-12-24T10:36:57.861Z,-7.50
2018-12-24T10:39:27.783Z,-7.40
2018-12-24T10:41:58.300Z,-7.30
2018-12-24T10:44:28.191Z,-7.30
2018-12-24T10:46:58.517Z,-7.40
2018-12-24T10:49:29.471Z,-7.30
2018-12-24T10:51:59.329Z,-7.30
2018-12-24T10:54:29.328Z,-7.30
2018-12-24T10:56:59.423Z,-7.30
2018-12-24T10:59:29.298Z,-7.30
2018-12-24T11:01:59.228Z,-7.20
2018-12-24T11:04:30.089Z,-7.10
2018-12-24T11:06:59.966Z,-7.10
2018-12-24T11:09:29.951Z,-7.00
2018-12-24T11:12:00.123Z,-7.10
2018-12-24T11:14:30.194Z,-7.00
2018-12-24T11:17:00.035Z,-7.00
2018-12-24T11:19:30.816Z,-6.90
2018-12-24T11:22:00.721Z,-6.80
2018-12-24T11:24:30.707Z,-6.80
2018-12-24T11:27:00.991Z,-6.70
2018-12-24T11:29:30.972Z,-7.00
2018-12-24T11:32:01.412Z,-7.20
2018-12-24T11:34:31.780Z,-7.20
2018-12-24T11:37:01.667Z,-7.20
2018-12-24T11:39:31.529Z,-7.20
2018-12-24T11:42:01.709Z,-7.10
2018-12-24T11:44:31.585Z,-7.00
2018-12-24T11:47:01.461Z,-6.90
2018-12-24T11:49:32.754Z,-6.80
2018-12-24T11:52:02.739Z,-6.70
2018-12-24T11:54:32.571Z,-6.70
2018-12-24T11:57:02.734Z,-6.50
2018-12-24T11:59:32.743Z,-6.30
2018-12-24T12:02:09.786Z,-6.10
2018-12-24T12:04:35.153Z,-6.00
2018-12-24T12:07:05.002Z,-5.90
2018-12-24T12:09:34.837Z,-5.90
2018-12-24T12:12:05.079Z,-5.90
2018-12-24T12:14:35.001Z,-6.00
2018-12-24T12:17:04.888Z,-6.10
2018-12-24T12:19:35.106Z,-6.00
2018-12-24T12:22:05.047Z,-6.10
2018-12-24T12:24:35.050Z,-6.10
2018-12-24T12:27:05.644Z,-6.10
2018-12-24T12:29:35.503Z,-6.20
2018-12-24T12:32:05.389Z,-6.30
2018-12-24T12:34:36.288Z,-6.30
2018-12-24T12:37:06.145Z,-6.30
2018-12-24T12:39:35.990Z,-6.30
2018-12-24T12:42:06.127Z,-6.30
2018-12-24T12:44:35.943Z,-6.30
2018-12-24T12:47:05.854Z,-6.30
2018-12-24T12:49:36.120Z,-6.30
2018-12-24T12:52:06.018Z,-6.30
2018-12-24T12:54:35.874Z,-6.30
2018-12-24T12:57:06.625Z,-6.40
2018-12-24T12:59:36.510Z,-6.50
2018-12-24T13:02:06.465Z,-6.40
2018-12-24T13:04:36.908Z,-6.40
2018-12-24T13:07:06.785Z,-6.40
2018-12-24T13:09:36.695Z,-6.40
2018-12-24T13:12:07.044Z,-6.40
2018-12-24T13:14:36.910Z,-6.40
2018-12-24T13:17:07.310Z,-6.40
2018-12-24T13:19:37.782Z,-6.80
2018-12-24T13:22:07.690Z,-6.90
2018-12-24T13:24:37.650Z,-6.90
2018-12-24T13:27:07.584Z,-7.00
2018-12-24T13:29:37.453Z,-7.10
2018-12-24T13:32:07.710Z,-7.00
2018-12-24T13:34:38.020Z,-6.90
2018-12-24T13:37:07.890Z,-6.90
2018-12-24T13:39:38.395Z,-6.90
2018-12-24T13:42:08.587Z,-7.00
2018-12-24T13:44:38.504Z,-7.10
2018-12-24T13:47:08.742Z,-7.20
2018-12-24T13:49:38.862Z,-7.20
2018-12-24T13:52:08.750Z,-7.20
2018-12-24T13:54:38.695Z,-7.30
2018-12-24T13:57:08.826Z,-7.40
2018-12-24T13:59:38.835Z,-7.50
2018-12-24T14:02:08.796Z,-7.50
2018-12-24T14:04:38.957Z,-7.60
2018-12-24T14:07:08.849Z,-7.60
2018-12-24T14:09:39.127Z,-7.50
2018-12-24T14:12:09.105Z,-7.60
2018-12-24T14:14:38.961Z,-7.60
2018-12-24T14:17:08.857Z,-7.70
2018-12-24T14:19:39.189Z,-7.80
2018-12-24T14:22:09.121Z,-7.80
2018-12-24T14:24:39.599Z,-7.80
2018-12-24T14:27:09.647Z,-7.70
2018-12-24T14:29:41.391Z,-7.70
2018-12-24T14:32:11.515Z,-7.70
2018-12-24T14:34:41.730Z,-7.80
2018-12-24T14:37:11.564Z,-7.70
2018-12-24T14:39:41.675Z,-7.50
2018-12-24T14:42:11.604Z,-7.40
2018-12-24T14:44:41.554Z,-7.50
2018-12-24T14:47:11.580Z,-7.40
2018-12-24T14:49:41.458Z,-7.40
2018-12-24T14:52:11.320Z,-7.50
2018-12-24T14:54:41.886Z,-7.50
2018-12-24T14:57:11.810Z,-7.40
2018-12-24T14:59:41.695Z,-7.40
2018-12-24T15:02:12.053Z,-7.50
2018-12-24T15:04:41.954Z,-7.50
2018-12-24T15:07:11.881Z,-7.50
2018-12-24T15:09:41.993Z,-7.40
2018-12-24T15:12:11.968Z,-7.40
2018-12-24T15:14:41.860Z,-7.30
2018-12-24T15:17:12.042Z,-7.20
2018-12-24T15:19:41.941Z,-7.10
2018-12-24T15:22:11.945Z,-7.00
2018-12-24T15:24:42.524Z,-6.90
2018-12-24T15:27:12.411Z,-6.80
2018-12-24T15:29:42.363Z,-6.80
2018-12-24T15:32:12.858Z,-6.80
2018-12-24T15:34:42.722Z,-6.70
2018-12-24T15:37:12.978Z,-6.60
2018-12-24T15:39:43.743Z,-6.50
2018-12-24T15:42:13.613Z,-6.40
2018-12-24T15:44:43.436Z,-6.40
2018-12-24T15:47:13.698Z,-6.30
2018-12-24T15:49:43.603Z,-6.30
2018-12-24T15:52:14.261Z,-6.30
2018-12-24T15:54:44.158Z,-6.30
2018-12-24T15:57:14.024Z,-6.30
2018-12-24T15:59:44.194Z,-6.40
2018-12-24T16:02:14.063Z,-6.40
2018-12-24T16:04:43.958Z,-6.40
2018-12-24T16:07:14.568Z,-6.30
2018-12-24T16:09:44.470Z,-6.40
2018-12-24T16:12:14.358Z,-6.40
2018-12-24T16:14:44.629Z,-6.50
2018-12-24T16:17:14.530Z,-6.40
2018-12-24T16:19:44.352Z,-6.50
2018-12-24T16:22:15.175Z,-6.60
2018-12-24T16:24:45.716Z,-6.50
2018-12-24T16:27:15.603Z,-6.50
2018-12-24T16:29:45.736Z,-6.50
2018-12-24T16:32:15.642Z,-6.50
2018-12-24T16:34:45.503Z,-6.60
2018-12-24T16:37:16.215Z,-6.70
2018-12-24T16:39:46.112Z,-6.70
2018-12-24T16:42:16.013Z,-6.70
2018-12-24T16:44:46.139Z,-6.80
2018-12-24T16:47:16.070Z,-6.80
2018-12-24T16:49:46.047Z,-6.80
2018-12-24T16:52:16.311Z,-6.80
2018-12-24T16:54:46.229Z,-6.80
2018-12-24T16:57:16.061Z,-6.70
2018-12-24T16:59:46.277Z,-6.70
2018-12-24T17:02:17.398Z,-6.60
2018-12-24T17:04:47.523Z,-6.50
2018-12-24T17:07:17.799Z,-6.50
2018-12-24T17:09:47.748Z,-6.40
2018-12-24T17:12:18.005Z,-6.30
2018-12-24T17:14:47.839Z,-6.30
2018-12-24T17:17:17.770Z,-6.00
2018-12-24T17:19:48.042Z,-5.70
2018-12-24T17:22:18.367Z,-5.80
2018-12-24T17:24:48.293Z,-5.80
2018-12-24T17:27:18.244Z,-5.70
2018-12-24T17:29:48.508Z,-5.50
2018-12-24T17:32:18.420Z,-5.40
2018-12-24T17:34:48.328Z,-5.40
2018-12-24T17:37:18.579Z,-5.40
2018-12-24T17:39:48.934Z,-5.40
2018-12-24T17:42:18.807Z,-5.30
2018-12-24T17:44:49.157Z,-5.10
2018-12-24T17:47:19.045Z,-5.00
2018-12-24T17:49:48.910Z,-5.00
2018-12-24T17:52:19.202Z,-4.90
2018-12-24T17:54:49.390Z,-4.80
2018-12-24T17:57:19.305Z,-4.80
2018-12-24T17:59:49.543Z,-4.80
2018-12-24T18:02:19.492Z,-4.40
2018-12-24T18:04:49.624Z,-4.40
2018-12-24T18:07:19.843Z,-4.30
2018-12-24T18:09:50.119Z,-4.40
2018-12-24T18:12:20.243Z,-4.10
2018-12-24T18:14:50.100Z,-4.10
2018-12-24T18:17:24.728Z,-4.20
2018-12-24T18:19:51.873Z,-4.20
2018-12-24T18:22:21.806Z,-4.10
2018-12-24T18:24:52.388Z,-4.00
2018-12-24T18:27:22.323Z,-4.00
2018-12-24T18:29:52.199Z,-4.00
2018-12-24T18:32:22.457Z,-4.00
2018-12-24T18:34:52.315Z,-4.10
2018-12-24T18:37:22.140Z,-4.20
2018-12-24T18:39:52.725Z,-4.20
2018-12-24T18:42:22.559Z,-4.20
2018-12-24T18:44:52.578Z,-4.20
2018-12-24T18:47:22.966Z,-4.30
2018-12-24T18:49:52.835Z,-4.30
2018-12-24T18:52:22.699Z,-4.20
2018-12-24T18:54:53.632Z,-4.20
2018-12-24T18:57:23.544Z,-4.10
2018-12-24T18:59:53.407Z,-4.20
2018-12-24T19:02:23.677Z,-4.30
2018-12-24T19:04:56.365Z,-4.20
2018-12-24T19:07:27.017Z,-4.10
2018-12-24T19:09:57.126Z,-4.10
2018-12-24T19:12:27.020Z,-3.90
2018-12-24T19:14:57.377Z,-3.70
2018-12-24T19:17:27.250Z,-3.60
2018-12-24T19:19:57.079Z,-3.50
2018-12-24T19:22:27.330Z,-3.40
2018-12-24T19:24:57.544Z,-3.20
2018-12-24T19:27:27.452Z,-3.00
2018-12-24T19:29:57.793Z,-2.80
2018-12-24T19:32:27.680Z,-2.80
2018-12-24T19:34:57.550Z,-2.80
2018-12-24T19:37:27.722Z,-2.80
2018-12-24T19:39:57.941Z,-2.70
2018-12-24T19:42:27.779Z,-2.60
2018-12-24T19:44:58.105Z,-2.70
2018-12-24T19:47:27.985Z,-2.70
2018-12-24T19:49:57.812Z,-2.60
2018-12-24T19:52:28.131Z,-2.60
2018-12-24T19:54:58.371Z,-2.70
2018-12-24T19:57:28.264Z,-2.50
2018-12-24T19:59:58.188Z,-2.50
2018-12-24T20:02:28.440Z,-2.50
2018-12-24T20:04:58.316Z,-2.50
2018-12-24T20:07:28.749Z,-2.50
2018-12-24T20:09:59.102Z,-2.50
2018-12-24T20:12:29.116Z,-2.40
2018-12-24T20:14:59.005Z,-2.40
2018-12-24T20:17:29.244Z,-2.20
2018-12-24T20:19:59.148Z,-2.30
2018-12-24T20:22:29.097Z,-2.10
2018-12-24T20:24:59.388Z,-2.10
2018-12-24T20:27:29.566Z,-2.10
2018-12-24T20:29:59.846Z,-2.20
2018-12-24T20:32:30.169Z,-2.00
2018-12-24T20:35:00.077Z,-2.00
2018-12-24T20:37:30.253Z,-1.90
2018-12-24T20:40:00.487Z,-2.00
2018-12-24T20:42:30.306Z,-2.00
2018-12-24T20:45:00.376Z,-2.00
2018-12-24T20:47:30.591Z,-2.10
2018-12-24T20:50:00.591Z,-1.90
2018-12-24T20:52:30.536Z,-1.80
2018-12-24T20:55:00.743Z,-1.90
2018-12-24T20:57:30.981Z,-1.70
2018-12-24T21:00:01.288Z,-1.60
2018-12-24T21:02:31.108Z,-1.70
2018-12-24T21:05:01.025Z,-1.50
2018-12-24T21:07:31.139Z,-1.30
2018-12-24T21:10:01.015Z,-1.30
2018-12-24T21:12:31.091Z,-1.50
2018-12-24T21:15:01.403Z,-1.20
2018-12-24T21:17:31.302Z,-1.20
2018-12-24T21:20:01.179Z,-1.20
2018-12-24T21:22:31.469Z,-1.20
2018-12-24T21:25:01.338Z,-1.40
2018-12-24T21:27:31.520Z,-0.20
2018-12-24T21:30:01.812Z,-0.30
2018-12-24T21:32:31.746Z,-0.60
2018-12-24T21:35:01.618Z,-0.70
2018-12-24T21:37:32.267Z,-0.50
2018-12-24T21:40:02.280Z,-0.30
2018-12-24T21:42:32.556Z,-0.40
2018-12-24T21:45:02.539Z,-0.30
2018-12-24T21:47:32.465Z,0.40
2018-12-24T21:50:02.498Z,0.50
2018-12-24T21:52:32.809Z,0.50
2018-12-24T21:55:02.684Z,0.50
2018-12-24T21:57:32.780Z,0.60
2018-12-24T22:00:03.157Z,0.90
2018-12-24T22:02:32.982Z,0.80
2018-12-24T22:05:02.884Z,0.80
2018-12-24T22:07:33.017Z,1.00
2018-12-24T22:10:02.895Z,0.90
2018-12-24T22:12:32.883Z,1.00
2018-12-24T22:15:02.919Z,1.10
2018-12-24T22:17:32.799Z,1.10
2018-12-24T22:20:02.746Z,1.10
2018-12-24T22:22:33.130Z,1.10
2018-12-24T22:25:03.108Z,1.20
2018-12-24T22:27:33.064Z,1.30
2018-12-24T22:30:02.990Z,1.20
2018-12-24T22:32:32.966Z,1.50
2018-12-24T22:35:02.907Z,1.40
2018-12-24T22:37:32.818Z,1.50
2018-12-24T22:40:02.719Z,1.50
2018-12-24T22:42:32.713Z,1.70
2018-12-24T22:45:02.724Z,1.60
2018-12-24T22:47:32.630Z,1.70
2018-12-24T22:50:02.695Z,1.70
2018-12-24T22:52:32.559Z,1.70
2018-12-24T22:55:02.459Z,1.60
2018-12-24T22:57:32.761Z,1.80
2018-12-24T23:00:02.694Z,1.90
2018-12-24T23:02:32.505Z,2.00
2018-12-24T23:05:02.696Z,2.00
2018-12-24T23:07:32.701Z,2.20
2018-12-24T23:10:02.602Z,2.30
2018-12-24T23:12:33.066Z,2.30
2018-12-24T23:15:03.009Z,2.40
2018-12-24T23:17:32.899Z,2.40
2018-12-24T23:20:03.000Z,2.30
2018-12-24T23:22:32.941Z,2.30
2018-12-24T23:25:02.807Z,2.30
2018-12-24T23:27:32.770Z,2.30
2018-12-24T23:30:02.710Z,2.40
2018-12-24T23:32:32.620Z,2.40
2018-12-24T23:35:02.606Z,2.40
2018-12-24T23:37:32.548Z,2.40
2018-12-24T23:40:02.511Z,2.40
2018-12-24T23:42:32.575Z,2.50
2018-12-24T23:45:02.794Z,2.50
2018-12-24T23:47:32.667Z,2.40
2018-12-24T23:50:02.612Z,2.40
2018-12-24T23:52:32.639Z,2.40
2018-12-24T23:55:02.531Z,2.50
2018-12-24T23:57:33.090Z,2.50
